createdAt,value
2023-03-26T00:02:35.211Z,6.37
2023-03-26T00:05:39.505Z,6.33
2023-03-26T00:08:46.930Z,6.22
2023-03-26T00:11:50.672Z,6.16
2023-03-26T00:14:54.213Z,6.16
2023-03-26T00:17:57.945Z,6.06
2023-03-26T00:21:04.349Z,6.06
2023-03-26T00:24:15.158Z,6.05
2023-03-26T00:27:18.914Z,6.08
2023-03-26T00:30:22.560Z,6.05
2023-03-26T00:33:26.312Z,6.06
2023-03-26T00:36:30.723Z,6.04
2023-03-26T00:39:37.450Z,6.01
2023-03-26T00:42:42.574Z,5.96
2023-03-26T00:45:47.963Z,5.98
2023-03-26T00:48:51.771Z,5.92
2023-03-26T00:51:55.380Z,5.95
2023-03-26T00:55:00.318Z,5.95
2023-03-26T00:58:03.851Z,5.94
2023-03-26T01:01:12.294Z,5.98
2023-03-26T01:04:31.301Z,5.96
2023-03-26T01:07:35.642Z,5.91
2023-03-26T01:10:40.939Z,5.90
2023-03-26T01:13:49.536Z,5.99
2023-03-26T01:16:55.954Z,6.01
2023-03-26T01:20:15.020Z,6.00
2023-03-26T01:23:26.320Z,5.95
2023-03-26T01:26:56.299Z,5.99
2023-03-26T01:30:11.635Z,5.92
2023-03-26T01:33:29.925Z,5.86
2023-03-26T01:36:42.747Z,5.87
2023-03-26T01:39:56.998Z,5.81
2023-03-26T01:43:10.197Z,5.78
2023-03-26T01:46:16.925Z,5.83
2023-03-26T01:49:20.940Z,5.83
2023-03-26T01:52:26.374Z,5.81
2023-03-26T01:55:43.982Z,5.86
2023-03-26T01:59:07.755Z,5.90
2023-03-26T02:02:15.408Z,5.89
2023-03-26T02:05:27.127Z,5.92
2023-03-26T02:08:38.319Z,5.99
2023-03-26T02:11:44.578Z,5.93
2023-03-26T02:14:50.017Z,5.97
2023-03-26T02:17:53.539Z,6.00
2023-03-26T02:20:57.014Z,6.00
2023-03-26T02:24:04.172Z,5.93
2023-03-26T02:27:08.678Z,5.93
2023-03-26T02:30:17.583Z,5.95
2023-03-26T02:33:21.652Z,5.90
2023-03-26T02:36:27.606Z,5.92
2023-03-26T02:39:31.736Z,5.99
2023-03-26T02:42:35.177Z,5.98
2023-03-26T02:45:40.989Z,5.99
2023-03-26T02:48:44.638Z,5.97
2023-03-26T02:51:48.303Z,5.93
2023-03-26T02:54:52.004Z,5.97
2023-03-26T02:57:56.567Z,5.99
2023-03-26T03:01:03.139Z,5.91
2023-03-26T03:04:08.542Z,5.84
2023-03-26T03:07:14.403Z,5.80
2023-03-26T03:10:21.918Z,5.79
2023-03-26T03:13:25.459Z,5.83
2023-03-26T03:16:30.777Z,5.78
2023-03-26T03:19:34.286Z,5.76
2023-03-26T03:22:37.863Z,5.79
2023-03-26T03:25:42.190Z,5.74
2023-03-26T03:28:46.332Z,5.76
2023-03-26T03:31:51.239Z,5.71
2023-03-26T03:34:55.030Z,5.73
2023-03-26T03:37:59.165Z,5.77
2023-03-26T03:41:02.850Z,5.68
2023-03-26T03:44:06.722Z,5.66
2023-03-26T03:47:13.788Z,5.63
2023-03-26T03:50:17.454Z,5.62
2023-03-26T03:53:21.850Z,5.63
2023-03-26T03:56:26.239Z,5.70
2023-03-26T03:59:29.833Z,5.69
2023-03-26T04:02:35.636Z,5.67
2023-03-26T04:05:40.613Z,5.65
2023-03-26T04:08:44.111Z,5.63
2023-03-26T04:11:47.600Z,5.64
2023-03-26T04:14:51.011Z,5.64
2023-03-26T04:17:56.074Z,5.62
2023-03-26T04:21:02.931Z,5.58
2023-03-26T04:24:07.284Z,5.61
2023-03-26T04:27:17.148Z,5.59
2023-03-26T04:30:22.065Z,5.52
2023-03-26T04:33:28.383Z,5.48
2023-03-26T04:36:34.359Z,5.41
2023-03-26T04:39:39.042Z,5.45
2023-03-26T04:42:46.390Z,5.32
2023-03-26T04:45:49.926Z,5.28
2023-03-26T04:48:56.229Z,5.26
2023-03-26T04:51:59.866Z,5.19
2023-03-26T04:55:03.842Z,5.13
2023-03-26T04:58:07.656Z,5.06
2023-03-26T05:01:12.115Z,4.95
2023-03-26T05:04:17.188Z,4.94
2023-03-26T05:07:23.959Z,4.92
2023-03-26T05:10:28.120Z,4.79
2023-03-26T05:13:31.580Z,4.87
2023-03-26T05:16:37.330Z,4.90
2023-03-26T05:19:42.600Z,4.94
2023-03-26T05:22:46.422Z,4.81
2023-03-26T05:25:50.409Z,4.93
2023-03-26T05:28:54.450Z,4.97
2023-03-26T05:31:58.020Z,5.03
2023-03-26T05:35:03.952Z,5.07
2023-03-26T05:38:08.360Z,5.10
2023-03-26T05:41:12.313Z,5.16
2023-03-26T05:44:16.063Z,5.20
2023-03-26T05:47:19.897Z,5.19
2023-03-26T05:50:25.156Z,5.25
2023-03-26T05:53:29.270Z,5.22
2023-03-26T05:56:32.926Z,5.22
2023-03-26T05:59:36.681Z,5.35
2023-03-26T06:02:42.306Z,5.39
2023-03-26T06:05:47.202Z,5.36
2023-03-26T06:09:02.168Z,5.40
2023-03-26T06:12:07.675Z,5.40
2023-03-26T06:15:12.772Z,5.38
2023-03-26T06:18:16.324Z,5.35
2023-03-26T06:21:21.662Z,5.32
2023-03-26T06:24:25.438Z,5.42
2023-03-26T06:27:28.927Z,5.42
2023-03-26T06:30:32.481Z,5.32
2023-03-26T06:33:36.289Z,5.35
2023-03-26T06:36:41.200Z,5.30
2023-03-26T06:39:44.757Z,5.36
2023-03-26T06:43:08.783Z,5.42
2023-03-26T06:46:12.386Z,5.40
2023-03-26T06:49:15.919Z,5.44
2023-03-26T06:52:20.786Z,5.38
2023-03-26T06:55:25.578Z,5.49
2023-03-26T06:58:29.385Z,5.40
2023-03-26T07:01:32.987Z,5.59
2023-03-26T07:04:36.857Z,5.57
2023-03-26T07:07:45.986Z,5.68
2023-03-26T07:10:50.378Z,5.64
2023-03-26T07:13:56.389Z,5.60
2023-03-26T07:17:00.659Z,5.50
2023-03-26T07:20:04.919Z,5.34
2023-03-26T07:23:12.070Z,5.44
2023-03-26T07:26:32.598Z,5.41
2023-03-26T07:29:44.824Z,5.35
2023-03-26T07:32:56.562Z,5.29
2023-03-26T07:36:19.770Z,5.25
2023-03-26T07:39:44.004Z,5.28
2023-03-26T07:43:02.796Z,5.40
2023-03-26T07:46:11.560Z,5.39
2023-03-26T07:49:17.938Z,5.43
2023-03-26T07:52:22.252Z,5.33
2023-03-26T07:55:28.940Z,5.43
2023-03-26T07:58:55.848Z,5.36
2023-03-26T08:02:31.042Z,5.48
2023-03-26T08:05:43.410Z,5.39
2023-03-26T08:08:56.533Z,5.35
2023-03-26T08:12:18.928Z,5.28
2023-03-26T08:15:33.316Z,5.35
2023-03-26T08:18:47.497Z,5.50
2023-03-26T08:21:56.740Z,5.40
2023-03-26T08:25:20.951Z,5.40
2023-03-26T08:28:48.622Z,5.65
2023-03-26T08:31:54.256Z,5.53
2023-03-26T08:35:00.114Z,5.42
2023-03-26T08:38:03.712Z,5.65
2023-03-26T08:42:04.458Z,5.85
2023-03-26T08:46:12.160Z,5.69
2023-03-26T08:50:03.561Z,5.82
2023-03-26T08:53:53.447Z,5.95
2023-03-26T08:57:26.507Z,5.87
2023-03-26T09:01:13.128Z,5.88
2023-03-26T09:05:16.289Z,5.75
2023-03-26T09:09:01.420Z,6.16
2023-03-26T09:12:52.238Z,6.01
2023-03-26T09:16:41.801Z,5.92
2023-03-26T09:20:43.228Z,5.97
2023-03-26T09:24:46.039Z,5.76
2023-03-26T09:28:22.104Z,6.16
2023-03-26T09:32:15.217Z,6.03
2023-03-26T09:36:00.812Z,5.98
2023-03-26T09:39:19.051Z,6.11
2023-03-26T09:42:38.583Z,6.45
2023-03-26T09:46:15.364Z,6.59
2023-03-26T09:49:39.536Z,6.61
2023-03-26T09:53:10.453Z,6.90
2023-03-26T09:56:33.671Z,6.57
2023-03-26T09:59:56.012Z,6.91
2023-03-26T10:03:36.312Z,6.64
2023-03-26T10:06:58.077Z,6.77
2023-03-26T10:10:17.580Z,6.49
2023-03-26T10:13:33.738Z,6.44
2023-03-26T10:16:53.716Z,6.75
2023-03-26T10:20:30.263Z,6.42
2023-03-26T10:24:27.933Z,6.49
2023-03-26T10:27:47.740Z,6.91
2023-03-26T10:31:34.312Z,6.97
2023-03-26T10:35:00.134Z,6.83
2023-03-26T10:38:19.658Z,6.73
2023-03-26T10:41:35.822Z,7.12
2023-03-26T10:45:12.109Z,6.69
2023-03-26T10:48:43.117Z,7.13
2023-03-26T10:51:55.937Z,6.91
2023-03-26T10:55:12.598Z,6.73
2023-03-26T10:58:25.604Z,6.74
2023-03-26T11:01:43.615Z,6.75
2023-03-26T11:05:03.021Z,7.14
2023-03-26T11:08:16.617Z,6.50
2023-03-26T11:11:33.092Z,6.50
2023-03-26T11:14:48.106Z,6.63
2023-03-26T11:18:07.851Z,6.79
2023-03-26T11:21:22.574Z,7.14
2023-03-26T11:25:22.724Z,6.64
2023-03-26T11:29:03.041Z,7.28
2023-03-26T11:32:14.284Z,7.49
2023-03-26T11:35:41.042Z,7.06
2023-03-26T11:38:48.621Z,7.18
2023-03-26T11:42:03.112Z,7.45
2023-03-26T11:45:15.666Z,6.91
2023-03-26T11:48:26.768Z,7.41
2023-03-26T11:51:35.431Z,7.62
2023-03-26T11:54:39.027Z,7.69
2023-03-26T11:57:51.451Z,8.08
2023-03-26T12:00:57.378Z,7.75
2023-03-26T12:04:13.205Z,7.49
2023-03-26T12:07:21.593Z,7.55
2023-03-26T12:10:35.100Z,7.28
2023-03-26T12:13:45.879Z,7.44
2023-03-26T12:17:05.871Z,7.43
2023-03-26T12:20:36.058Z,7.46
2023-03-26T12:23:56.310Z,7.33
2023-03-26T12:27:03.484Z,6.94
2023-03-26T12:30:20.524Z,7.56
2023-03-26T12:33:29.488Z,7.95
2023-03-26T12:36:36.101Z,7.77
2023-03-26T12:40:07.350Z,7.62
2023-03-26T12:44:53.965Z,7.71
2023-03-26T12:47:59.337Z,7.88
2023-03-26T12:50:57.394Z,7.86
2023-03-26T12:54:23.764Z,7.78
2023-03-26T12:57:38.968Z,7.55
2023-03-26T13:01:03.153Z,7.98
2023-03-26T13:04:34.236Z,8.35
2023-03-26T13:07:54.915Z,8.23
2023-03-26T13:11:14.227Z,8.17
2023-03-26T13:15:05.773Z,7.48
2023-03-26T13:18:27.337Z,7.32
2023-03-26T13:21:46.817Z,7.62
2023-03-26T13:25:02.319Z,8.02
2023-03-26T13:28:29.081Z,8.08
2023-03-26T13:31:40.684Z,8.54
2023-03-26T13:35:07.397Z,8.38
2023-03-26T13:38:24.614Z,7.83
2023-03-26T13:41:45.339Z,7.62
2023-03-26T13:45:05.890Z,7.51
2023-03-26T13:48:20.259Z,8.18
2023-03-26T13:51:32.316Z,8.03
2023-03-26T13:54:44.645Z,8.18
2023-03-26T13:58:02.031Z,8.03
2023-03-26T14:01:11.058Z,7.97
2023-03-26T14:04:24.704Z,7.83
2023-03-26T14:07:39.233Z,7.86
2023-03-26T14:10:52.866Z,8.30
2023-03-26T14:14:05.390Z,8.54
2023-03-26T14:17:22.411Z,8.45
2023-03-26T14:20:53.419Z,8.62
2023-03-26T14:24:44.865Z,7.93
2023-03-26T14:28:12.005Z,8.10
2023-03-26T14:31:29.017Z,7.44
2023-03-26T14:34:53.227Z,7.70
2023-03-26T14:38:33.951Z,7.42
2023-03-26T14:41:51.232Z,7.25
2023-03-26T14:45:37.048Z,7.32
2023-03-26T14:49:21.760Z,7.65
2023-03-26T14:52:40.652Z,7.73
2023-03-26T14:56:31.923Z,7.78
2023-03-26T15:00:23.683Z,7.46
2023-03-26T15:04:43.694Z,7.35
2023-03-26T15:08:33.899Z,7.97
2023-03-26T15:11:52.858Z,8.06
2023-03-26T15:15:53.904Z,7.45
2023-03-26T15:19:56.346Z,7.24
2023-03-26T15:23:59.207Z,6.89
2023-03-26T15:27:43.646Z,7.19
2023-03-26T15:31:21.025Z,7.14
2023-03-26T15:35:17.425Z,6.85
2023-03-26T15:38:57.581Z,6.85
2023-03-26T15:42:17.394Z,6.85
2023-03-26T15:45:38.420Z,7.00
2023-03-26T15:49:00.865Z,7.46
2023-03-26T15:52:25.331Z,7.11
2023-03-26T15:55:36.652Z,6.99
2023-03-26T15:58:53.814Z,6.99
2023-03-26T16:02:12.889Z,6.85
2023-03-26T16:05:37.979Z,6.65
2023-03-26T16:08:56.074Z,6.58
2023-03-26T16:12:25.175Z,6.74
2023-03-26T16:15:33.376Z,6.65
2023-03-26T16:18:41.168Z,6.64
2023-03-26T16:21:56.273Z,6.46
2023-03-26T16:25:28.026Z,6.40
2023-03-26T16:28:36.660Z,6.48
2023-03-26T16:32:07.151Z,6.24
2023-03-26T16:35:42.666Z,6.13
2023-03-26T16:38:55.746Z,6.05
2023-03-26T16:42:10.411Z,5.93
2023-03-26T16:45:27.949Z,6.00
2023-03-26T16:48:41.312Z,5.80
2023-03-26T16:52:23.286Z,5.57
2023-03-26T16:55:41.149Z,5.65
2023-03-26T16:58:58.791Z,5.54
2023-03-26T17:02:21.721Z,5.45
2023-03-26T17:05:37.166Z,5.29
2023-03-26T17:08:56.507Z,5.37
2023-03-26T17:12:15.838Z,5.18
2023-03-26T17:15:34.965Z,5.15
2023-03-26T17:18:51.569Z,5.08
2023-03-26T17:22:03.783Z,4.98
2023-03-26T17:25:26.281Z,4.91
2023-03-26T17:28:55.246Z,4.81
2023-03-26T17:32:08.786Z,4.76
2023-03-26T17:35:14.539Z,4.68
2023-03-26T17:39:01.013Z,4.54
2023-03-26T17:42:26.252Z,4.36
2023-03-26T17:45:43.878Z,4.24
2023-03-26T17:48:58.061Z,4.21
2023-03-26T17:52:06.874Z,4.11
2023-03-26T17:55:16.746Z,4.10
2023-03-26T17:58:33.317Z,3.99
2023-03-26T18:01:44.424Z,3.93
2023-03-26T18:04:54.447Z,3.91
2023-03-26T18:08:33.218Z,3.69
2023-03-26T18:12:17.551Z,3.64
2023-03-26T18:15:38.731Z,3.59
2023-03-26T18:18:52.021Z,3.56
2023-03-26T18:21:59.252Z,3.54
2023-03-26T18:25:04.411Z,3.40
2023-03-26T18:28:08.609Z,3.35
2023-03-26T18:31:21.083Z,3.23
2023-03-26T18:34:29.246Z,3.24
2023-03-26T18:37:36.164Z,3.20
2023-03-26T18:40:44.434Z,3.14
2023-03-26T18:43:48.153Z,3.07
2023-03-26T18:46:55.875Z,3.01
2023-03-26T18:50:01.193Z,3.01
2023-03-26T18:53:08.437Z,3.05
2023-03-26T18:56:33.827Z,3.04
2023-03-26T18:59:41.219Z,3.05
2023-03-26T19:02:49.757Z,2.99
2023-03-26T19:05:56.213Z,3.03
2023-03-26T19:09:01.419Z,2.99
2023-03-26T19:12:09.892Z,2.95
2023-03-26T19:15:17.384Z,2.94
2023-03-26T19:18:27.541Z,2.89
2023-03-26T19:21:31.417Z,2.90
2023-03-26T19:24:35.679Z,2.88
2023-03-26T19:27:39.567Z,2.86
2023-03-26T19:30:44.161Z,2.92
2023-03-26T19:33:58.977Z,2.84
2023-03-26T19:37:18.016Z,2.89
2023-03-26T19:40:29.767Z,2.85
2023-03-26T19:43:33.388Z,2.77
2023-03-26T19:46:53.348Z,2.79
2023-03-26T19:50:01.850Z,2.74
2023-03-26T19:53:28.566Z,2.70
2023-03-26T19:56:33.924Z,2.67
2023-03-26T19:59:37.925Z,2.65
2023-03-26T20:02:42.416Z,2.67
2023-03-26T20:05:47.771Z,2.69
2023-03-26T20:08:53.576Z,2.68
2023-03-26T20:11:58.421Z,2.68
2023-03-26T20:15:02.993Z,2.61
2023-03-26T20:18:06.927Z,2.61
2023-03-26T20:21:15.586Z,2.57
2023-03-26T20:24:24.009Z,2.62
2023-03-26T20:27:27.629Z,2.55
2023-03-26T20:30:37.846Z,2.54
2023-03-26T20:33:42.265Z,2.49
2023-03-26T20:36:48.159Z,2.49
2023-03-26T20:39:52.712Z,2.42
2023-03-26T20:42:56.553Z,2.39
2023-03-26T20:46:04.187Z,2.33
2023-03-26T20:49:07.794Z,2.31
2023-03-26T20:52:15.599Z,2.33
2023-03-26T20:55:22.268Z,2.25
2023-03-26T20:58:31.451Z,2.31
2023-03-26T21:01:37.892Z,2.31
2023-03-26T21:04:42.029Z,2.21
2023-03-26T21:07:48.013Z,2.20
2023-03-26T21:10:57.194Z,2.20
2023-03-26T21:14:08.273Z,2.13
2023-03-26T21:17:18.608Z,2.06
2023-03-26T21:20:24.586Z,2.12
2023-03-26T21:23:41.021Z,2.08
2023-03-26T21:26:53.369Z,2.09
2023-03-26T21:29:58.239Z,2.01
2023-03-26T21:33:02.257Z,2.01
2023-03-26T21:36:07.597Z,1.90
2023-03-26T21:39:13.728Z,1.93
2023-03-26T21:42:18.027Z,1.87
2023-03-26T21:45:22.999Z,1.83
2023-03-26T21:48:27.453Z,1.77
2023-03-26T21:51:34.056Z,1.66
2023-03-26T21:54:41.070Z,1.66
2023-03-26T21:58:11.151Z,1.64
2023-03-26T22:01:33.227Z,1.60
2023-03-26T22:04:45.663Z,1.58
2023-03-26T22:07:58.126Z,1.44
2023-03-26T22:11:03.004Z,1.46
2023-03-26T22:14:06.576Z,1.48
2023-03-26T22:17:10.030Z,1.47
2023-03-26T22:20:15.884Z,1.43
2023-03-26T22:23:19.695Z,1.38
2023-03-26T22:26:26.103Z,1.42
2023-03-26T22:29:30.033Z,1.41
2023-03-26T22:32:36.093Z,1.33
2023-03-26T22:35:40.114Z,1.28
2023-03-26T22:38:43.591Z,1.21
2023-03-26T22:41:48.485Z,1.13
2023-03-26T22:44:51.962Z,1.14
2023-03-26T22:48:03.225Z,1.11
2023-03-26T22:51:10.291Z,1.06
2023-03-26T22:54:14.585Z,0.92
2023-03-26T22:57:19.906Z,1.01
2023-03-26T23:00:23.650Z,0.96
2023-03-26T23:03:35.188Z,0.89
2023-03-26T23:06:39.086Z,0.89
2023-03-26T23:09:42.697Z,0.87
2023-03-26T23:12:47.551Z,0.81
2023-03-26T23:15:52.194Z,0.72
2023-03-26T23:18:55.647Z,0.75
2023-03-26T23:21:59.179Z,0.75
2023-03-26T23:25:03.319Z,0.67
2023-03-26T23:28:08.532Z,0.65
2023-03-26T23:31:14.152Z,0.55
2023-03-26T23:34:18.609Z,0.51
2023-03-26T23:37:23.954Z,0.50
2023-03-26T23:40:27.418Z,0.53
2023-03-26T23:43:32.882Z,0.61
2023-03-26T23:46:36.382Z,0.60
2023-03-26T23:49:40.031Z,0.57
2023-03-26T23:52:45.809Z,0.49
2023-03-26T23:55:51.176Z,0.41
2023-03-26T23:58:58.213Z,0.30
